createdAt,value
2019-03-23T00:01:08.365Z,45.90
2019-03-23T00:03:40.513Z,47.65
2019-03-23T00:06:12.246Z,38.92
2019-03-23T00:08:44.072Z,16.55
2019-03-23T00:11:16.421Z,33.48
2019-03-23T00:13:48.646Z,47.73
2019-03-23T00:16:20.638Z,23.90
2019-03-23T00:18:52.397Z,31.77
2019-03-23T00:21:24.126Z,24.30
2019-03-23T00:23:55.902Z,46.53
2019-03-23T00:26:28.172Z,49.40
2019-03-23T00:28:59.947Z,48.45
2019-03-23T00:31:34.341Z,49.20
2019-03-23T00:34:06.538Z,49.48
2019-03-23T00:36:41.659Z,51.40
2019-03-23T00:39:11.922Z,45.88
2019-03-23T00:41:43.767Z,48.20
2019-03-23T00:44:15.888Z,44.75
2019-03-23T00:46:47.602Z,51.23
2019-03-23T00:49:19.740Z,48.78
2019-03-23T00:51:52.221Z,50.48
2019-03-23T00:54:23.999Z,33.33
2019-03-23T00:56:55.778Z,55.08
2019-03-23T00:59:27.540Z,56.10
2019-03-23T01:01:59.348Z,49.25
2019-03-23T01:04:31.211Z,28.10
2019-03-23T01:07:03.011Z,46.00
2019-03-23T01:09:34.804Z,58.23
2019-03-23T01:12:11.433Z,58.63
2019-03-23T01:14:43.117Z,53.45
2019-03-23T01:17:14.896Z,46.25
2019-03-23T01:19:46.619Z,40.60
2019-03-23T01:22:18.303Z,50.00
2019-03-23T01:24:51.086Z,22.90
2019-03-23T01:27:22.773Z,40.20
2019-03-23T01:29:54.505Z,56.77
2019-03-23T01:32:26.267Z,57.53
2019-03-23T01:34:58.508Z,49.45
2019-03-23T01:37:30.254Z,52.62
2019-03-23T01:40:02.329Z,54.27
2019-03-23T01:42:36.352Z,24.85
2019-03-23T01:45:08.275Z,52.95
2019-03-23T01:47:40.371Z,44.25
2019-03-23T01:50:12.536Z,31.55
2019-03-23T01:52:44.293Z,41.35
2019-03-23T01:55:16.019Z,58.13
2019-03-23T01:57:48.452Z,42.58
2019-03-23T02:00:20.583Z,25.48
2019-03-23T02:02:52.613Z,21.87
2019-03-23T02:05:24.339Z,28.05
2019-03-23T02:07:56.012Z,48.60
2019-03-23T02:10:28.128Z,34.75
2019-03-23T02:12:59.815Z,30.23
2019-03-23T02:15:32.517Z,45.55
2019-03-23T02:18:04.279Z,42.10
2019-03-23T02:20:36.007Z,46.35
2019-03-23T02:23:08.068Z,31.48
2019-03-23T02:25:39.730Z,30.08
2019-03-23T02:28:11.760Z,30.37
2019-03-23T02:30:43.801Z,44.85
2019-03-23T02:33:15.594Z,39.20
2019-03-23T02:35:48.364Z,41.98
2019-03-23T02:38:21.041Z,26.35
2019-03-23T02:40:52.810Z,20.85
2019-03-23T02:43:25.848Z,40.28
2019-03-23T02:45:57.600Z,33.02
2019-03-23T02:48:29.629Z,32.30
2019-03-23T02:51:01.340Z,23.10
2019-03-23T02:53:33.137Z,41.70
2019-03-23T02:56:05.233Z,38.78
2019-03-23T02:58:37.369Z,41.88
2019-03-23T03:01:09.088Z,41.87
2019-03-23T03:03:41.096Z,44.18
2019-03-23T03:06:13.091Z,44.65
2019-03-23T03:08:44.845Z,37.20
2019-03-23T03:11:16.497Z,40.52
2019-03-23T03:13:48.213Z,36.73
2019-03-23T03:16:20.371Z,33.28
2019-03-23T03:18:52.055Z,34.50
2019-03-23T03:21:23.830Z,37.28
2019-03-23T03:23:55.550Z,41.80
2019-03-23T03:26:27.501Z,15.32
2019-03-23T03:28:59.274Z,24.60
2019-03-23T03:31:31.324Z,33.60
2019-03-23T03:34:03.372Z,34.78
2019-03-23T03:36:35.406Z,37.05
2019-03-23T03:39:08.760Z,38.85
2019-03-23T03:41:40.441Z,28.50
2019-03-23T03:44:12.138Z,20.55
2019-03-23T03:46:44.826Z,19.60
2019-03-23T03:49:16.518Z,24.05
2019-03-23T03:51:48.867Z,34.18
2019-03-23T03:54:20.624Z,37.48
2019-03-23T03:56:52.318Z,28.25
2019-03-23T03:59:25.264Z,32.05
2019-03-23T04:01:56.956Z,14.20
2019-03-23T04:04:28.647Z,30.45
2019-03-23T04:07:00.385Z,33.02
2019-03-23T04:09:32.220Z,23.92
2019-03-23T04:12:03.952Z,37.55
2019-03-23T04:14:35.644Z,32.75
2019-03-23T04:17:07.368Z,40.95
2019-03-23T04:19:39.597Z,37.63
2019-03-23T04:22:11.277Z,21.12
2019-03-23T04:24:42.964Z,34.60
2019-03-23T04:27:14.655Z,30.75
2019-03-23T04:29:47.199Z,36.70
2019-03-23T04:32:18.985Z,25.92
2019-03-23T04:34:50.694Z,41.90
2019-03-23T04:37:22.723Z,23.87
2019-03-23T04:39:54.785Z,17.60
2019-03-23T04:42:26.492Z,33.30
2019-03-23T04:44:58.201Z,23.32
2019-03-23T04:47:30.162Z,23.80
2019-03-23T04:50:01.914Z,32.35
2019-03-23T04:52:33.678Z,24.98
2019-03-23T04:55:06.569Z,35.52
2019-03-23T04:57:38.955Z,36.58
2019-03-23T05:00:12.084Z,38.08
2019-03-23T05:02:43.858Z,19.35
2019-03-23T05:05:15.735Z,20.33
2019-03-23T05:07:47.412Z,37.48
2019-03-23T05:10:19.141Z,39.50
2019-03-23T05:12:50.851Z,32.33
2019-03-23T05:15:23.681Z,34.43
2019-03-23T05:17:55.366Z,39.15
2019-03-23T05:20:33.801Z,32.48
2019-03-23T05:23:05.691Z,18.42
2019-03-23T05:25:37.444Z,20.75
2019-03-23T05:28:09.663Z,35.40
2019-03-23T05:30:41.373Z,17.50
2019-03-23T05:33:13.485Z,33.95
2019-03-23T05:35:45.250Z,34.10
2019-03-23T05:38:16.942Z,18.75
2019-03-23T05:40:48.656Z,38.13
2019-03-23T05:43:20.374Z,36.03
2019-03-23T05:45:52.250Z,22.52
2019-03-23T05:48:23.975Z,34.88
2019-03-23T05:50:55.781Z,31.87
2019-03-23T05:53:28.965Z,36.33
2019-03-23T05:56:00.702Z,35.08
2019-03-23T05:58:32.447Z,28.02
2019-03-23T06:01:04.151Z,35.15
2019-03-23T06:03:35.856Z,32.42
2019-03-23T06:06:07.499Z,35.63
2019-03-23T06:08:40.098Z,34.20
2019-03-23T06:11:11.819Z,30.80
2019-03-23T06:13:43.552Z,37.00
2019-03-23T06:16:15.253Z,23.90
2019-03-23T06:18:48.461Z,28.38
2019-03-23T06:21:20.522Z,37.45
2019-03-23T06:23:52.231Z,36.95
2019-03-23T06:26:23.929Z,33.98
2019-03-23T06:28:56.117Z,25.05
2019-03-23T06:31:27.920Z,31.77
2019-03-23T06:33:59.752Z,30.50
2019-03-23T06:36:31.880Z,38.30
2019-03-23T06:39:05.762Z,33.98
2019-03-23T06:41:37.592Z,29.57
2019-03-23T06:44:09.293Z,28.30
2019-03-23T06:46:41.049Z,18.27
2019-03-23T06:49:12.722Z,37.95
2019-03-23T06:51:44.883Z,37.63
2019-03-23T06:54:17.508Z,37.63
2019-03-23T06:56:49.704Z,37.38
2019-03-23T06:59:21.389Z,37.98
2019-03-23T07:01:53.862Z,37.58
2019-03-23T07:04:26.858Z,31.20
2019-03-23T07:06:59.794Z,39.35
2019-03-23T07:09:31.503Z,40.28
2019-03-23T07:12:03.221Z,37.25
2019-03-23T07:14:34.940Z,33.00
2019-03-23T07:17:06.868Z,36.40
2019-03-23T07:19:38.620Z,37.65
2019-03-23T07:22:10.300Z,35.90
2019-03-23T07:24:42.067Z,36.48
2019-03-23T07:27:13.804Z,33.90
2019-03-23T07:29:45.546Z,31.93
2019-03-23T07:32:17.543Z,32.17
2019-03-23T07:34:49.280Z,24.40
2019-03-23T07:37:21.031Z,33.88
2019-03-23T07:39:53.202Z,18.35
2019-03-23T07:42:25.978Z,25.88
2019-03-23T07:44:58.060Z,27.27
2019-03-23T07:47:30.037Z,35.68
2019-03-23T07:50:01.897Z,31.68
2019-03-23T07:52:33.786Z,33.83
2019-03-23T07:55:12.544Z,35.90
2019-03-23T07:57:44.646Z,36.42
2019-03-23T08:00:19.172Z,32.95
2019-03-23T08:02:51.003Z,34.03
2019-03-23T08:05:23.776Z,37.58
2019-03-23T08:07:55.467Z,35.85
2019-03-23T08:10:33.782Z,32.50
2019-03-23T08:13:05.493Z,35.23
2019-03-23T08:15:37.549Z,35.35
2019-03-23T08:18:09.296Z,33.60
2019-03-23T08:20:40.977Z,37.10
2019-03-23T08:23:12.710Z,29.77
2019-03-23T08:25:44.994Z,35.55
2019-03-23T08:28:16.686Z,38.15
2019-03-23T08:30:48.454Z,35.85
2019-03-23T08:33:20.069Z,37.30
2019-03-23T08:35:51.791Z,37.83
2019-03-23T08:38:23.562Z,30.62
2019-03-23T08:40:55.396Z,36.60
2019-03-23T08:43:27.604Z,35.52
2019-03-23T08:45:59.292Z,37.25
2019-03-23T08:48:31.529Z,35.13
2019-03-23T08:51:03.227Z,32.38
2019-03-23T08:53:36.046Z,30.08
2019-03-23T08:56:07.716Z,31.90
2019-03-23T08:58:37.157Z,33.55
2019-03-23T09:01:10.275Z,27.13
2019-03-23T09:03:52.094Z,18.40
2019-03-23T09:06:18.439Z,24.72
2019-03-23T09:08:50.485Z,30.02
2019-03-23T09:11:22.268Z,31.33
2019-03-23T09:13:54.059Z,32.98
2019-03-23T09:16:25.828Z,32.40
2019-03-23T09:18:57.519Z,30.95
2019-03-23T09:21:29.283Z,22.02
2019-03-23T09:24:01.021Z,22.98
2019-03-23T09:26:32.746Z,30.10
2019-03-23T09:29:04.555Z,27.15
2019-03-23T09:31:36.316Z,22.82
2019-03-23T09:34:07.873Z,26.55
2019-03-23T09:36:41.366Z,27.40
2019-03-23T09:39:13.363Z,28.38
2019-03-23T09:41:45.204Z,27.55
2019-03-23T09:44:17.047Z,25.50
2019-03-23T09:46:48.847Z,25.82
2019-03-23T09:49:22.065Z,24.23
2019-03-23T09:51:54.071Z,23.12
2019-03-23T09:54:27.525Z,21.82
2019-03-23T09:56:59.688Z,26.30
2019-03-23T09:59:31.550Z,23.27
2019-03-23T10:02:05.312Z,25.02
2019-03-23T10:06:31.569Z,25.08
2019-03-23T10:09:04.038Z,23.50
2019-03-23T10:11:35.860Z,16.45
2019-03-23T10:14:07.998Z,20.60
2019-03-23T10:16:39.871Z,21.33
2019-03-23T10:19:11.723Z,19.87
2019-03-23T10:21:43.432Z,25.97
2019-03-23T10:24:15.280Z,17.73
2019-03-23T10:26:47.125Z,18.75
2019-03-23T10:29:18.962Z,12.37
2019-03-23T10:31:50.761Z,17.35
2019-03-23T10:34:22.949Z,16.70
2019-03-23T10:36:57.000Z,15.72
2019-03-23T10:39:28.776Z,15.38
2019-03-23T10:42:00.565Z,15.60
2019-03-23T10:44:32.678Z,17.25
2019-03-23T10:47:04.944Z,24.72
2019-03-23T10:49:36.793Z,10.32
2019-03-23T10:52:08.515Z,15.23
2019-03-23T10:54:40.274Z,17.60
2019-03-23T10:57:12.134Z,15.72
2019-03-23T10:59:45.635Z,16.23
2019-03-23T11:02:17.429Z,16.95
2019-03-23T11:04:49.822Z,7.00
2019-03-23T11:07:21.745Z,10.50
2019-03-23T11:09:53.593Z,16.12
2019-03-23T11:12:25.409Z,11.15
2019-03-23T11:14:57.660Z,10.63
2019-03-23T11:17:29.416Z,7.05
2019-03-23T11:20:01.573Z,14.03
2019-03-23T11:22:33.427Z,12.03
2019-03-23T11:25:05.978Z,13.70
2019-03-23T11:27:39.057Z,12.25
2019-03-23T11:30:11.062Z,10.55
2019-03-23T11:32:44.475Z,13.25
2019-03-23T11:35:16.386Z,10.18
2019-03-23T11:37:48.401Z,12.68
2019-03-23T11:40:20.300Z,5.35
2019-03-23T11:42:52.623Z,10.20
2019-03-23T11:45:24.413Z,10.35
2019-03-23T11:47:56.229Z,8.40
2019-03-23T11:50:28.116Z,9.43
2019-03-23T11:52:59.961Z,4.00
2019-03-23T11:55:31.750Z,7.60
2019-03-23T11:58:04.777Z,8.43
2019-03-23T12:00:36.933Z,6.62
2019-03-23T12:03:08.827Z,3.15
2019-03-23T12:05:40.512Z,6.12
2019-03-23T12:08:12.434Z,2.65
2019-03-23T12:10:44.305Z,3.47
2019-03-23T12:13:16.250Z,3.52
2019-03-23T12:15:48.457Z,3.85
2019-03-23T12:18:20.599Z,3.70
2019-03-23T12:20:52.492Z,3.30
2019-03-23T12:23:24.175Z,2.47
2019-03-23T12:25:55.990Z,3.00
2019-03-23T12:28:27.781Z,3.10
2019-03-23T12:30:59.476Z,1.77
2019-03-23T12:33:31.186Z,1.20
2019-03-23T12:36:04.067Z,2.27
2019-03-23T12:38:37.420Z,2.50
2019-03-23T12:41:18.462Z,2.70
2019-03-23T12:43:42.748Z,2.98
2019-03-23T12:46:14.540Z,2.17
2019-03-23T12:48:46.275Z,2.55
2019-03-23T12:51:18.107Z,3.00
2019-03-23T12:53:50.305Z,1.30
2019-03-23T12:56:22.102Z,2.40
2019-03-23T12:58:54.239Z,1.90
2019-03-23T13:01:26.229Z,2.15
2019-03-23T13:03:57.988Z,2.90
2019-03-23T13:06:29.784Z,1.85
2019-03-23T13:09:01.538Z,2.30
2019-03-23T13:11:36.039Z,2.00
2019-03-23T13:14:08.616Z,1.27
2019-03-23T13:16:40.471Z,2.30
2019-03-23T13:19:12.566Z,1.32
2019-03-23T13:21:44.595Z,1.42
2019-03-23T13:24:16.420Z,1.87
2019-03-23T13:26:49.228Z,2.50
2019-03-23T13:29:20.986Z,1.98
2019-03-23T13:31:52.745Z,1.92
2019-03-23T13:34:25.488Z,1.50
2019-03-23T13:36:57.646Z,2.72
2019-03-23T13:39:29.734Z,0.90
2019-03-23T13:42:01.441Z,2.70
2019-03-23T13:44:33.200Z,2.33
2019-03-23T13:47:05.096Z,5.80
2019-03-23T13:49:38.145Z,1.40
2019-03-23T13:52:09.973Z,1.30
2019-03-23T13:54:42.432Z,2.00
2019-03-23T13:57:14.145Z,1.17
2019-03-23T13:59:45.983Z,1.05
2019-03-23T14:02:17.782Z,1.15
2019-03-23T14:04:50.373Z,3.00
2019-03-23T14:07:22.511Z,2.15
2019-03-23T14:09:54.218Z,1.85
2019-03-23T14:12:25.994Z,1.12
2019-03-23T14:14:58.101Z,2.92
2019-03-23T14:17:29.890Z,1.85
2019-03-23T14:20:01.879Z,1.75
2019-03-23T14:22:33.655Z,2.27
2019-03-23T14:25:05.891Z,2.20
2019-03-23T14:27:37.849Z,1.90
2019-03-23T14:30:10.386Z,1.57
2019-03-23T14:32:42.226Z,1.27
2019-03-23T14:35:14.112Z,1.22
2019-03-23T14:37:45.835Z,2.30
2019-03-23T14:40:17.664Z,2.52
2019-03-23T14:42:49.522Z,1.90
2019-03-23T14:45:21.291Z,2.35
2019-03-23T14:47:53.410Z,1.50
2019-03-23T14:50:25.102Z,2.17
2019-03-23T14:52:57.319Z,1.57
2019-03-23T14:55:29.141Z,1.98
2019-03-23T14:58:00.931Z,1.00
2019-03-23T15:00:35.942Z,1.10
2019-03-23T15:03:07.649Z,2.15
2019-03-23T15:05:50.841Z,1.50
2019-03-23T15:08:22.658Z,1.25
2019-03-23T15:10:54.753Z,1.20
2019-03-23T15:13:26.493Z,1.57
2019-03-23T15:15:58.592Z,1.50
2019-03-23T15:18:30.358Z,1.50
2019-03-23T15:21:03.462Z,1.20
2019-03-23T15:23:35.198Z,1.30
2019-03-23T15:26:06.922Z,1.62
2019-03-23T15:28:39.146Z,1.72
2019-03-23T15:31:11.197Z,1.90
2019-03-23T15:33:42.898Z,1.65
2019-03-23T15:36:17.168Z,1.90
2019-03-23T15:38:48.560Z,2.20
2019-03-23T15:41:20.774Z,1.60
2019-03-23T15:43:52.643Z,1.75
2019-03-23T15:46:27.249Z,1.20
2019-03-23T15:48:59.035Z,3.12
2019-03-23T15:51:31.072Z,2.77
2019-03-23T15:54:02.833Z,2.17
2019-03-23T15:56:35.941Z,1.92
2019-03-23T15:59:07.900Z,1.10
2019-03-23T16:01:39.664Z,1.95
2019-03-23T16:04:11.431Z,15.75
2019-03-23T16:06:43.195Z,1.87
2019-03-23T16:09:14.986Z,1.72
2019-03-23T16:11:46.766Z,0.68
2019-03-23T16:14:18.831Z,1.75
2019-03-23T16:16:51.003Z,1.70
2019-03-23T16:19:22.738Z,2.10
2019-03-23T16:21:54.654Z,2.15
2019-03-23T16:24:26.436Z,1.98
2019-03-23T16:26:58.300Z,1.82
2019-03-23T16:29:30.102Z,2.60
2019-03-23T16:32:01.805Z,2.65
2019-03-23T16:34:33.566Z,2.05
2019-03-23T16:37:05.320Z,2.20
2019-03-23T16:39:37.015Z,2.08
2019-03-23T16:42:09.082Z,2.50
2019-03-23T16:44:41.108Z,3.95
2019-03-23T16:47:12.925Z,2.55
2019-03-23T16:49:44.761Z,3.47
2019-03-23T16:52:16.519Z,2.12
2019-03-23T16:54:48.291Z,1.98
2019-03-23T16:57:20.091Z,1.50
2019-03-23T16:59:52.226Z,1.30
2019-03-23T17:02:23.972Z,1.32
2019-03-23T17:04:55.771Z,2.70
2019-03-23T17:07:27.881Z,1.30
2019-03-23T17:09:59.971Z,2.85
2019-03-23T17:12:33.338Z,1.25
2019-03-23T17:15:06.177Z,0.98
2019-03-23T17:17:37.940Z,2.72
2019-03-23T17:20:09.931Z,5.28
2019-03-23T17:22:41.699Z,2.10
2019-03-23T17:25:13.810Z,2.75
2019-03-23T17:27:45.819Z,1.47
2019-03-23T17:30:17.758Z,2.40
2019-03-23T17:32:49.948Z,2.02
2019-03-23T17:35:21.690Z,2.75
2019-03-23T17:37:53.439Z,1.50
2019-03-23T17:40:25.156Z,3.55
2019-03-23T17:43:05.629Z,1.87
2019-03-23T17:45:30.248Z,2.58
2019-03-23T17:48:02.345Z,2.58
2019-03-23T17:50:34.027Z,3.37
2019-03-23T17:53:05.942Z,2.80
2019-03-23T17:55:37.674Z,3.12
2019-03-23T17:58:09.466Z,2.83
2019-03-23T18:00:41.233Z,2.90
2019-03-23T18:03:13.022Z,2.80
2019-03-23T18:05:44.715Z,2.52
2019-03-23T18:08:16.919Z,2.37
2019-03-23T18:10:48.678Z,3.15
2019-03-23T18:13:20.459Z,3.90
2019-03-23T18:15:52.623Z,2.27
2019-03-23T18:18:24.384Z,4.03
2019-03-23T18:20:56.184Z,3.15
2019-03-23T18:23:27.888Z,2.80
2019-03-23T18:25:59.659Z,3.58
2019-03-23T18:28:31.426Z,2.85
2019-03-23T18:31:03.196Z,2.87
2019-03-23T18:33:35.416Z,3.12
2019-03-23T18:36:07.175Z,4.90
2019-03-23T18:38:39.375Z,3.37
2019-03-23T18:41:11.122Z,3.58
2019-03-23T18:43:42.820Z,3.62
2019-03-23T18:46:14.812Z,3.70
2019-03-23T18:48:48.267Z,3.85
2019-03-23T18:51:20.015Z,3.10
2019-03-23T18:53:51.730Z,4.28
2019-03-23T18:56:23.501Z,2.75
2019-03-23T18:58:55.249Z,2.70
2019-03-23T19:01:27.374Z,3.00
2019-03-23T19:03:59.110Z,2.00
2019-03-23T19:06:30.828Z,3.20
2019-03-23T19:09:02.551Z,3.52
2019-03-23T19:11:35.700Z,3.37
2019-03-23T19:14:07.492Z,9.28
2019-03-23T19:16:41.189Z,13.10
2019-03-23T19:19:13.608Z,3.42
2019-03-23T19:21:45.370Z,10.50
2019-03-23T19:24:17.145Z,2.87
2019-03-23T19:26:48.911Z,3.00
2019-03-23T19:29:20.697Z,3.33
2019-03-23T19:31:52.404Z,3.45
2019-03-23T19:34:24.144Z,3.50
2019-03-23T19:36:56.328Z,3.20
2019-03-23T19:39:28.122Z,3.45
2019-03-23T19:41:59.852Z,9.45
2019-03-23T19:44:32.001Z,3.22
2019-03-23T19:47:03.772Z,2.62
2019-03-23T19:49:35.531Z,3.00
2019-03-23T19:52:07.247Z,2.65
2019-03-23T19:54:39.207Z,2.60
2019-03-23T19:57:10.935Z,2.87
2019-03-23T19:59:42.797Z,4.50
2019-03-23T20:02:14.633Z,3.65
2019-03-23T20:04:46.408Z,3.10
2019-03-23T20:07:18.155Z,3.15
2019-03-23T20:10:05.514Z,2.60
2019-03-23T20:12:37.299Z,3.30
2019-03-23T20:15:10.785Z,4.45
2019-03-23T20:17:42.590Z,9.83
2019-03-23T20:20:15.087Z,3.67
2019-03-23T20:22:50.066Z,3.72
2019-03-23T20:25:22.149Z,4.22
2019-03-23T20:27:53.954Z,4.12
2019-03-23T20:30:25.908Z,3.33
2019-03-23T20:32:58.186Z,3.92
2019-03-23T20:35:29.866Z,3.95
2019-03-23T20:38:02.491Z,4.20
2019-03-23T20:40:34.305Z,2.72
2019-03-23T20:43:07.705Z,3.40
2019-03-23T20:45:39.523Z,4.30
2019-03-23T20:48:11.469Z,4.25
2019-03-23T20:50:45.095Z,4.78
2019-03-23T20:53:18.883Z,3.45
2019-03-23T20:55:50.657Z,4.00
2019-03-23T20:58:22.763Z,4.70
2019-03-23T21:00:54.467Z,7.47
2019-03-23T21:03:26.263Z,4.53
2019-03-23T21:05:58.224Z,3.75
2019-03-23T21:08:29.943Z,2.47
2019-03-23T21:11:02.878Z,1.95
2019-03-23T21:13:34.632Z,3.60
2019-03-23T21:16:06.671Z,4.78
2019-03-23T21:18:38.912Z,4.37
2019-03-23T21:21:10.614Z,4.67
2019-03-23T21:23:42.335Z,4.97
2019-03-23T21:26:14.040Z,5.15
2019-03-23T21:28:45.810Z,3.35
2019-03-23T21:31:17.903Z,4.80
2019-03-23T21:33:49.652Z,3.95
2019-03-23T21:36:21.368Z,4.83
2019-03-23T21:38:53.119Z,4.67
2019-03-23T21:41:24.936Z,4.20
2019-03-23T21:43:56.684Z,4.08
2019-03-23T21:46:28.441Z,5.00
2019-03-23T21:49:00.122Z,5.95
2019-03-23T21:51:31.926Z,4.72
2019-03-23T21:54:03.740Z,6.10
2019-03-23T21:56:35.486Z,4.45
2019-03-23T21:59:08.154Z,3.13
2019-03-23T22:01:39.866Z,4.50
2019-03-23T22:04:11.671Z,4.10
2019-03-23T22:06:44.661Z,2.93
2019-03-23T22:09:17.136Z,4.58
2019-03-23T22:11:48.821Z,3.42
2019-03-23T22:14:20.607Z,4.13
2019-03-23T22:16:52.616Z,4.90
2019-03-23T22:19:24.405Z,4.60
2019-03-23T22:21:56.145Z,5.08
2019-03-23T22:24:27.890Z,3.67
2019-03-23T22:26:59.587Z,5.47
2019-03-23T22:29:31.375Z,5.22
2019-03-23T22:32:03.072Z,5.30
2019-03-23T22:34:34.781Z,4.50
2019-03-23T22:37:07.017Z,4.72
2019-03-23T22:39:39.164Z,4.50
2019-03-23T22:42:11.817Z,5.03
2019-03-23T22:44:52.000Z,5.03
2019-03-23T22:47:16.970Z,5.35
2019-03-23T22:49:49.788Z,4.42
2019-03-23T22:52:22.515Z,4.97
2019-03-23T22:54:56.709Z,4.75
2019-03-23T22:57:29.242Z,5.20
2019-03-23T23:00:01.255Z,5.37
2019-03-23T23:02:34.392Z,5.35
2019-03-23T23:05:07.096Z,3.37
2019-03-23T23:07:40.059Z,3.70
2019-03-23T23:10:12.053Z,4.50
2019-03-23T23:12:44.318Z,5.80
2019-03-23T23:15:24.738Z,4.85
2019-03-23T23:17:58.752Z,4.50
2019-03-23T23:20:30.546Z,5.45
2019-03-23T23:23:03.742Z,4.93
2019-03-23T23:25:37.057Z,4.78
2019-03-23T23:28:09.146Z,4.72
2019-03-23T23:30:41.252Z,4.22
2019-03-23T23:33:13.059Z,5.67
2019-03-23T23:35:45.821Z,6.30
2019-03-23T23:38:17.613Z,5.62
2019-03-23T23:40:49.506Z,6.20
2019-03-23T23:43:21.888Z,5.83
2019-03-23T23:48:23.316Z,5.10
2019-03-23T23:50:55.270Z,6.25
2019-03-23T23:53:27.101Z,5.80
2019-03-23T23:55:59.306Z,6.37
2019-03-23T23:58:31.751Z,6.67
